createdAt,value
2016-12-10T00:00:56.853Z,8.91
2016-12-10T00:02:12.578Z,8.94
2016-12-10T00:03:28.912Z,8.84
2016-12-10T00:04:44.336Z,8.87
2016-12-10T00:05:59.836Z,8.83
2016-12-10T00:07:13.332Z,8.86
2016-12-10T00:08:29.249Z,8.81
2016-12-10T00:09:43.695Z,8.79
2016-12-10T00:10:58.175Z,8.88
2016-12-10T00:12:14.886Z,8.87
2016-12-10T00:13:28.794Z,8.86
2016-12-10T00:14:42.280Z,8.83
2016-12-10T00:15:57.771Z,8.84
2016-12-10T00:17:12.637Z,8.79
2016-12-10T00:18:28.758Z,8.72
2016-12-10T00:19:45.469Z,8.88
2016-12-10T00:21:02.208Z,8.81
2016-12-10T00:22:18.160Z,8.78
2016-12-10T00:23:33.323Z,8.84
2016-12-10T00:24:48.649Z,8.73
2016-12-10T00:26:04.014Z,8.76
2016-12-10T00:27:20.201Z,8.83
2016-12-10T00:28:34.370Z,8.81
2016-12-10T00:29:49.087Z,8.78
2016-12-10T00:31:03.525Z,8.83
2016-12-10T00:32:18.534Z,8.81
2016-12-10T00:33:33.835Z,8.78
2016-12-10T00:34:50.137Z,8.72
2016-12-10T00:36:06.176Z,8.78
2016-12-10T00:37:22.983Z,8.75
2016-12-10T00:38:37.784Z,8.79
2016-12-10T00:39:52.906Z,8.75
2016-12-10T00:41:09.808Z,8.73
2016-12-10T00:42:26.117Z,8.78
2016-12-10T00:43:42.838Z,8.81
2016-12-10T00:44:58.445Z,8.76
2016-12-10T00:46:11.595Z,8.79
2016-12-10T00:47:27.669Z,8.83
2016-12-10T00:48:39.438Z,8.73
2016-12-10T00:49:56.579Z,8.78
2016-12-10T00:51:11.386Z,8.79
2016-12-10T00:52:23.200Z,8.79
2016-12-10T00:53:37.817Z,8.76
2016-12-10T00:54:54.080Z,8.78
2016-12-10T00:56:10.158Z,8.78
2016-12-10T00:57:25.629Z,8.75
2016-12-10T00:58:41.964Z,8.76
2016-12-10T00:59:56.023Z,8.78
2016-12-10T01:01:10.770Z,8.73
2016-12-10T01:02:25.124Z,8.79
2016-12-10T01:03:40.305Z,8.76
2016-12-10T01:04:55.163Z,8.71
2016-12-10T01:06:11.885Z,8.79
2016-12-10T01:07:26.915Z,8.69
2016-12-10T01:08:43.150Z,8.76
2016-12-10T01:09:58.492Z,8.78
2016-12-10T01:11:13.173Z,8.75
2016-12-10T01:12:27.623Z,8.63
2016-12-10T01:13:43.444Z,8.72
2016-12-10T01:14:57.797Z,8.71
2016-12-10T01:16:11.535Z,8.75
2016-12-10T01:17:27.168Z,8.79
2016-12-10T01:18:43.168Z,8.76
2016-12-10T01:19:58.841Z,8.71
2016-12-10T01:21:14.984Z,8.69
2016-12-10T01:22:31.710Z,8.69
2016-12-10T01:23:48.562Z,8.65
2016-12-10T01:25:03.328Z,8.69
2016-12-10T01:26:19.646Z,8.66
2016-12-10T01:27:35.027Z,8.69
2016-12-10T01:28:50.802Z,8.6
2016-12-10T01:30:07.241Z,8.62
2016-12-10T01:31:22.249Z,8.54
2016-12-10T01:32:38.848Z,8.54
2016-12-10T01:33:53.957Z,8.62
2016-12-10T01:35:10.779Z,8.54
2016-12-10T01:36:24.326Z,8.62
2016-12-10T01:37:39.447Z,8.55
2016-12-10T01:38:56.293Z,8.6
2016-12-10T01:40:11.157Z,8.66
2016-12-10T01:41:25.776Z,8.71
2016-12-10T01:42:41.251Z,8.65
2016-12-10T01:43:54.012Z,8.65
2016-12-10T01:45:08.648Z,8.69
2016-12-10T01:46:24.849Z,8.65
2016-12-10T01:47:40.722Z,8.69
2016-12-10T01:48:54.719Z,8.66
2016-12-10T01:50:10.449Z,8.69
2016-12-10T01:51:26.802Z,8.69
2016-12-10T01:52:42.588Z,8.6
2016-12-10T01:53:57.417Z,8.58
2016-12-10T01:55:13.528Z,8.71
2016-12-10T01:56:30.021Z,8.66
2016-12-10T01:57:46.729Z,8.69
2016-12-10T01:58:58.995Z,8.66
2016-12-10T02:00:14.932Z,8.63
2016-12-10T02:01:29.314Z,8.71
2016-12-10T02:02:44.251Z,8.6
2016-12-10T02:03:59.743Z,8.6
2016-12-10T02:05:15.394Z,8.68
2016-12-10T02:06:29.283Z,8.71
2016-12-10T02:07:44.770Z,8.71
2016-12-10T02:09:01.259Z,8.71
2016-12-10T02:10:14.506Z,8.68
2016-12-10T02:11:27.718Z,8.63
2016-12-10T02:12:44.075Z,8.62
2016-12-10T02:14:00.782Z,8.66
2016-12-10T02:15:14.774Z,8.68
2016-12-10T02:16:28.393Z,8.72
2016-12-10T02:17:44.449Z,8.65
2016-12-10T02:18:59.948Z,8.63
2016-12-10T02:20:16.290Z,8.69
2016-12-10T02:21:31.079Z,8.69
2016-12-10T02:22:44.577Z,8.75
2016-12-10T02:24:00.057Z,8.68
2016-12-10T02:25:14.327Z,8.71
2016-12-10T02:26:27.140Z,8.73
2016-12-10T02:27:40.221Z,8.68
2016-12-10T02:28:53.378Z,8.72
2016-12-10T02:30:08.631Z,8.63
2016-12-10T02:31:25.330Z,8.66
2016-12-10T02:32:40.195Z,8.73
2016-12-10T02:33:53.538Z,8.65
2016-12-10T02:35:10.077Z,8.71
2016-12-10T02:36:24.864Z,8.57
2016-12-10T02:37:39.554Z,8.71
2016-12-10T02:38:53.598Z,8.54
2016-12-10T02:40:09.603Z,8.6
2016-12-10T02:41:24.560Z,8.65
2016-12-10T02:42:37.915Z,8.53
2016-12-10T02:43:53.406Z,8.57
2016-12-10T02:45:08.077Z,8.62
2016-12-10T02:46:23.278Z,8.57
2016-12-10T02:47:37.814Z,8.6
2016-12-10T02:48:51.206Z,8.62
2016-12-10T02:50:05.583Z,8.58
2016-12-10T02:51:21.480Z,8.58
2016-12-10T02:52:37.959Z,8.65
2016-12-10T02:53:53.041Z,8.69
2016-12-10T02:55:07.300Z,8.71
2016-12-10T02:56:23.282Z,8.71
2016-12-10T02:57:37.098Z,8.68
2016-12-10T02:58:53.364Z,8.68
2016-12-10T03:00:09.039Z,8.62
2016-12-10T03:01:25.436Z,8.58
2016-12-10T03:02:39.005Z,8.55
2016-12-10T03:03:52.655Z,8.68
2016-12-10T03:05:05.471Z,8.5
2016-12-10T03:06:21.711Z,8.55
2016-12-10T03:07:38.421Z,8.57
2016-12-10T03:08:54.700Z,8.62
2016-12-10T03:10:10.350Z,8.57
2016-12-10T03:11:24.629Z,8.6
2016-12-10T03:12:40.676Z,8.5
2016-12-10T03:13:55.905Z,8.45
2016-12-10T03:15:10.185Z,8.47
2016-12-10T03:16:25.902Z,8.5
2016-12-10T03:17:42.206Z,8.48
2016-12-10T03:18:53.731Z,8.5
2016-12-10T03:20:10.066Z,8.48
2016-12-10T03:21:24.269Z,8.51
2016-12-10T03:22:37.867Z,8.44
2016-12-10T03:23:53.127Z,8.47
2016-12-10T03:25:09.030Z,8.47
2016-12-10T03:26:25.721Z,8.48
2016-12-10T03:27:38.533Z,8.47
2016-12-10T03:28:55.287Z,8.48
2016-12-10T03:30:11.432Z,8.47
2016-12-10T03:31:25.725Z,8.47
2016-12-10T03:32:40.802Z,8.53
2016-12-10T03:33:55.555Z,8.51
2016-12-10T03:35:11.885Z,8.58
2016-12-10T03:36:26.342Z,8.62
2016-12-10T03:37:42.384Z,8.58
2016-12-10T03:38:56.691Z,8.6
2016-12-10T03:40:11.567Z,8.57
2016-12-10T03:41:26.569Z,8.68
2016-12-10T03:42:41.610Z,8.69
2016-12-10T03:43:56.098Z,8.69
2016-12-10T03:45:10.557Z,8.71
2016-12-10T03:46:26.702Z,8.75
2016-12-10T03:47:42.384Z,8.69
2016-12-10T03:48:58.306Z,8.76
2016-12-10T03:50:13.022Z,8.79
2016-12-10T03:51:28.918Z,8.63
2016-12-10T03:52:43.778Z,8.78
2016-12-10T03:53:58.344Z,8.69
2016-12-10T03:55:14.246Z,8.66
2016-12-10T03:56:30.142Z,8.79
2016-12-10T03:57:43.545Z,8.78
2016-12-10T03:58:56.609Z,8.75
2016-12-10T04:00:12.915Z,8.78
2016-12-10T04:01:27.469Z,8.65
2016-12-10T04:02:42.298Z,8.73
2016-12-10T04:03:57.152Z,8.75
2016-12-10T04:05:10.232Z,8.72
2016-12-10T04:06:26.924Z,8.6
2016-12-10T04:07:43.083Z,8.66
2016-12-10T04:08:59.397Z,8.71
2016-12-10T04:10:15.861Z,8.72
2016-12-10T04:11:32.388Z,8.71
2016-12-10T04:12:45.119Z,8.62
2016-12-10T04:14:00.212Z,8.53
2016-12-10T04:15:14.984Z,8.62
2016-12-10T04:16:31.308Z,8.6
2016-12-10T04:17:47.451Z,8.6
2016-12-10T04:19:02.287Z,8.58
2016-12-10T04:20:16.915Z,8.66
2016-12-10T04:21:31.673Z,8.66
2016-12-10T04:22:46.622Z,8.63
2016-12-10T04:24:02.171Z,8.73
2016-12-10T04:25:18.700Z,8.54
2016-12-10T04:26:33.833Z,8.62
2016-12-10T04:27:48.197Z,8.55
2016-12-10T04:29:04.097Z,8.58
2016-12-10T04:30:19.604Z,8.54
2016-12-10T04:31:31.498Z,8.62
2016-12-10T04:32:46.764Z,8.57
2016-12-10T04:33:59.682Z,8.58
2016-12-10T04:35:15.605Z,8.55
2016-12-10T04:36:29.795Z,8.51
2016-12-10T04:37:45.134Z,8.58
2016-12-10T04:38:58.806Z,8.6
2016-12-10T04:40:14.725Z,8.58
2016-12-10T04:41:30.406Z,8.53
2016-12-10T04:42:46.076Z,8.53
2016-12-10T04:44:02.366Z,8.6
2016-12-10T04:45:17.400Z,8.69
2016-12-10T04:46:31.609Z,8.66
2016-12-10T04:47:44.758Z,8.58
2016-12-10T04:48:59.430Z,8.68
2016-12-10T04:50:12.915Z,8.69
2016-12-10T04:51:28.856Z,8.65
2016-12-10T04:52:42.186Z,8.63
2016-12-10T04:53:58.191Z,8.66
2016-12-10T04:55:14.315Z,8.6
2016-12-10T04:56:30.932Z,8.66
2016-12-10T04:57:46.424Z,8.72
2016-12-10T04:59:01.270Z,8.58
2016-12-10T05:00:15.464Z,8.63
2016-12-10T05:01:30.189Z,8.71
2016-12-10T05:02:44.890Z,8.66
2016-12-10T05:04:00.216Z,8.54
2016-12-10T05:05:15.761Z,8.6
2016-12-10T05:06:32.294Z,8.57
2016-12-10T05:07:47.012Z,8.55
2016-12-10T05:09:02.158Z,8.54
2016-12-10T05:10:18.656Z,8.55
2016-12-10T05:11:33.568Z,8.55
2016-12-10T05:12:48.479Z,8.57
2016-12-10T05:14:05.364Z,8.58
2016-12-10T05:15:21.257Z,8.53
2016-12-10T05:16:35.236Z,8.57
2016-12-10T05:17:51.535Z,8.57
2016-12-10T05:19:03.827Z,8.55
2016-12-10T05:20:18.670Z,8.62
2016-12-10T05:21:30.305Z,8.58
2016-12-10T05:22:45.596Z,8.6
2016-12-10T05:23:59.965Z,8.48
2016-12-10T05:25:16.576Z,8.58
2016-12-10T05:26:31.033Z,8.54
2016-12-10T05:27:46.024Z,8.48
2016-12-10T05:29:00.551Z,8.51
2016-12-10T05:30:17.344Z,8.57
2016-12-10T05:31:32.389Z,8.47
2016-12-10T05:32:46.708Z,8.48
2016-12-10T05:34:00.742Z,8.51
2016-12-10T05:35:15.848Z,8.54
2016-12-10T05:36:29.877Z,8.53
2016-12-10T05:37:46.024Z,8.55
2016-12-10T05:39:00.164Z,8.58
2016-12-10T05:40:13.169Z,8.55
2016-12-10T05:41:29.902Z,8.63
2016-12-10T05:42:44.849Z,8.5
2016-12-10T05:43:58.320Z,8.54
2016-12-10T05:45:14.900Z,8.51
2016-12-10T05:46:29.697Z,8.54
2016-12-10T05:47:43.091Z,8.54
2016-12-10T05:48:59.358Z,8.58
2016-12-10T05:50:13.963Z,8.55
2016-12-10T05:51:29.286Z,8.54
2016-12-10T05:52:41.278Z,8.54
2016-12-10T05:53:55.954Z,8.51
2016-12-10T05:55:11.910Z,8.63
2016-12-10T05:56:27.418Z,8.55
2016-12-10T05:57:37.578Z,8.53
2016-12-10T05:58:50.980Z,8.51
2016-12-10T06:00:06.070Z,8.57
2016-12-10T06:01:21.985Z,8.45
2016-12-10T06:02:35.557Z,8.51
2016-12-10T06:03:49.986Z,8.54
2016-12-10T06:05:05.153Z,8.48
2016-12-10T06:06:19.193Z,8.48
2016-12-10T06:07:32.658Z,8.54
2016-12-10T06:08:47.261Z,8.44
2016-12-10T06:10:00.785Z,8.5
2016-12-10T06:11:15.553Z,8.47
2016-12-10T06:12:30.069Z,8.5
2016-12-10T06:13:45.290Z,8.51
2016-12-10T06:15:02.109Z,8.48
2016-12-10T06:16:16.802Z,8.45
2016-12-10T06:17:30.359Z,8.37
2016-12-10T06:18:46.711Z,8.39
2016-12-10T06:20:00.186Z,8.48
2016-12-10T06:21:16.325Z,8.44
2016-12-10T06:22:30.958Z,8.42
2016-12-10T06:23:44.002Z,8.42
2016-12-10T06:24:58.830Z,8.42
2016-12-10T06:26:12.214Z,8.4
2016-12-10T06:27:23.974Z,8.45
2016-12-10T06:28:40.543Z,8.36
2016-12-10T06:29:54.832Z,8.37
2016-12-10T06:31:10.065Z,8.39
2016-12-10T06:32:26.449Z,8.33
2016-12-10T06:33:42.789Z,8.29
2016-12-10T06:34:58.432Z,8.36
2016-12-10T06:36:12.867Z,8.28
2016-12-10T06:37:26.934Z,8.33
2016-12-10T06:38:42.749Z,8.35
2016-12-10T06:39:58.410Z,8.36
2016-12-10T06:41:12.893Z,8.32
2016-12-10T06:42:28.376Z,8.28
2016-12-10T06:43:43.055Z,8.33
2016-12-10T06:44:57.323Z,8.33
2016-12-10T06:46:11.964Z,8.32
2016-12-10T06:47:26.757Z,8.37
2016-12-10T06:48:42.558Z,8.33
2016-12-10T06:49:58.853Z,8.39
2016-12-10T06:51:13.152Z,8.29
2016-12-10T06:52:26.214Z,8.35
2016-12-10T06:53:39.442Z,8.3
2016-12-10T06:54:54.712Z,8.37
2016-12-10T06:56:09.767Z,8.32
2016-12-10T06:57:26.033Z,8.32
2016-12-10T06:58:39.605Z,8.32
2016-12-10T06:59:53.067Z,8.25
2016-12-10T07:01:09.727Z,8.26
2016-12-10T07:02:24.488Z,8.22
2016-12-10T07:03:39.439Z,8.28
2016-12-10T07:04:54.402Z,8.3
2016-12-10T07:06:10.970Z,8.26
2016-12-10T07:07:26.160Z,8.22
2016-12-10T07:08:42.316Z,8.28
2016-12-10T07:09:57.234Z,8.25
2016-12-10T07:11:12.289Z,8.25
2016-12-10T07:12:26.182Z,8.25
2016-12-10T07:13:42.147Z,8.26
2016-12-10T07:14:58.478Z,8.28
2016-12-10T07:16:15.189Z,8.17
2016-12-10T07:17:31.271Z,8.17
2016-12-10T07:18:46.681Z,8.22
2016-12-10T07:20:02.065Z,8.21
2016-12-10T07:21:16.849Z,8.17
2016-12-10T07:22:33.148Z,8.18
2016-12-10T07:23:48.402Z,8.2
2016-12-10T07:25:02.877Z,8.12
2016-12-10T07:26:18.783Z,8.15
2016-12-10T07:27:32.007Z,8.14
2016-12-10T07:28:46.319Z,8.18
2016-12-10T07:29:59.132Z,8.15
2016-12-10T07:31:15.688Z,8.2
2016-12-10T07:32:32.059Z,8.14
2016-12-10T07:33:46.781Z,8.17
2016-12-10T07:35:00.589Z,8.14
2016-12-10T07:36:16.663Z,8.15
2016-12-10T07:37:31.944Z,8.18
2016-12-10T07:38:45.048Z,8.04
2016-12-10T07:40:01.589Z,8.21
2016-12-10T07:41:14.638Z,8.11
2016-12-10T07:42:30.401Z,8.25
2016-12-10T07:43:44.686Z,8.12
2016-12-10T07:44:59.709Z,8.15
2016-12-10T07:46:14.232Z,8.12
2016-12-10T07:47:29.177Z,8.08
2016-12-10T07:48:46.038Z,8.15
2016-12-10T07:49:59.425Z,8.12
2016-12-10T07:51:13.893Z,8.12
2016-12-10T07:52:30.511Z,8.12
2016-12-10T07:53:45.576Z,8.17
2016-12-10T07:55:00.228Z,8.15
2016-12-10T07:56:12.339Z,8.18
2016-12-10T07:57:24.065Z,8.25
2016-12-10T07:58:38.902Z,8.29
2016-12-10T07:59:55.051Z,8.26
2016-12-10T08:01:09.055Z,8.33
2016-12-10T08:02:23.694Z,8.44
2016-12-10T08:03:39.869Z,8.39
2016-12-10T08:04:56.926Z,8.35
2016-12-10T08:06:12.808Z,8.4
2016-12-10T08:07:29.069Z,8.37
2016-12-10T08:08:43.488Z,8.33
2016-12-10T08:09:58.458Z,8.42
2016-12-10T08:11:12.353Z,8.42
2016-12-10T08:12:27.389Z,8.42
2016-12-10T08:13:43.720Z,8.4
2016-12-10T08:14:57.962Z,8.45
2016-12-10T08:16:12.609Z,8.36
2016-12-10T08:17:26.029Z,8.39
2016-12-10T08:18:40.694Z,8.4
2016-12-10T08:19:55.018Z,8.48
2016-12-10T08:21:09.867Z,8.47
2016-12-10T08:22:26.156Z,8.47
2016-12-10T08:23:39.041Z,8.54
2016-12-10T08:24:55.140Z,8.5
2016-12-10T08:26:11.419Z,8.5
2016-12-10T08:27:24.477Z,8.55
2016-12-10T08:28:39.133Z,8.58
2016-12-10T08:29:55.537Z,8.6
2016-12-10T08:31:09.734Z,8.58
2016-12-10T08:32:24.776Z,8.58
2016-12-10T08:33:39.937Z,8.62
2016-12-10T08:34:54.890Z,8.57
2016-12-10T08:36:11.332Z,8.58
2016-12-10T08:37:24.809Z,8.62
2016-12-10T08:38:39.521Z,8.71
2016-12-10T08:39:55.382Z,8.66
2016-12-10T08:41:11.884Z,8.68
2016-12-10T08:42:27.777Z,8.73
2016-12-10T08:43:42.911Z,8.76
2016-12-10T08:44:57.105Z,8.86
2016-12-10T08:46:10.917Z,8.91
2016-12-10T08:47:25.863Z,8.97
2016-12-10T08:48:40.537Z,9.1
2016-12-10T08:49:57.446Z,9.09
2016-12-10T08:51:13.105Z,9.04
2016-12-10T08:52:28.868Z,8.91
2016-12-10T08:53:45.174Z,8.93
2016-12-10T08:55:00.528Z,9.12
2016-12-10T08:56:15.178Z,9.05
2016-12-10T08:57:30.985Z,9.05
2016-12-10T08:58:42.874Z,9.06
2016-12-10T08:59:54.443Z,9.15
2016-12-10T09:01:10.595Z,9.18
2016-12-10T09:02:22.887Z,9.09
2016-12-10T09:03:37.554Z,9.09
2016-12-10T09:04:53.861Z,9.09
2016-12-10T09:06:10.354Z,9.12
2016-12-10T09:07:25.300Z,9.15
2016-12-10T09:08:40.131Z,9.2
2016-12-10T09:09:55.185Z,9.24
2016-12-10T09:11:10.587Z,9.25
2016-12-10T09:12:26.575Z,9.32
2016-12-10T09:13:41.563Z,9.4
2016-12-10T09:14:55.000Z,9.49
2016-12-10T09:16:07.337Z,9.56
2016-12-10T09:17:20.550Z,9.64
2016-12-10T09:18:33.810Z,9.63
2016-12-10T09:19:50.290Z,9.7
2016-12-10T09:21:07.026Z,9.68
2016-12-10T09:22:22.508Z,9.66
2016-12-10T09:23:39.284Z,9.63
2016-12-10T09:24:56.032Z,9.73
2016-12-10T09:26:09.811Z,9.67
2016-12-10T09:27:26.548Z,9.76
2016-12-10T09:28:41.738Z,9.71
2016-12-10T09:29:53.673Z,9.7
2016-12-10T09:31:10.261Z,9.75
2016-12-10T09:32:24.979Z,9.7
2016-12-10T09:33:41.979Z,9.71
2016-12-10T09:34:59.299Z,9.61
2016-12-10T09:36:14.420Z,9.61
2016-12-10T09:37:27.893Z,9.6
2016-12-10T09:38:44.391Z,9.73
2016-12-10T09:40:01.750Z,9.71
2016-12-10T09:41:16.776Z,9.83
2016-12-10T09:42:31.671Z,9.85
2016-12-10T09:43:44.886Z,9.88
2016-12-10T09:45:01.864Z,9.93
2016-12-10T09:46:18.652Z,10.04
2016-12-10T09:47:35.334Z,9.99
2016-12-10T09:48:51.405Z,10.04
2016-12-10T09:50:03.662Z,10.09
2016-12-10T09:51:18.699Z,10.07
2016-12-10T09:52:33.570Z,10.18
2016-12-10T09:53:49.171Z,10.15
2016-12-10T09:55:06.040Z,10.18
2016-12-10T09:56:22.412Z,10.1
2016-12-10T09:57:37.011Z,10.07
2016-12-10T09:58:52.046Z,10.07
2016-12-10T10:00:07.552Z,10.1
2016-12-10T10:01:22.943Z,9.99
2016-12-10T10:02:38.315Z,10
2016-12-10T10:03:53.203Z,10
2016-12-10T10:05:05.301Z,10.1
2016-12-10T10:06:21.507Z,10.12
2016-12-10T10:07:34.950Z,10.12
2016-12-10T10:08:50.011Z,10.09
2016-12-10T10:10:04.416Z,10.09
2016-12-10T10:11:21.158Z,10.01
2016-12-10T10:12:34.815Z,10.01
2016-12-10T10:13:51.601Z,10.07
2016-12-10T10:15:07.045Z,9.97
2016-12-10T10:16:23.853Z,9.94
2016-12-10T10:17:39.633Z,10.03
2016-12-10T10:18:54.334Z,10.14
2016-12-10T10:20:09.499Z,10.19
2016-12-10T10:21:25.097Z,10.32
2016-12-10T10:22:41.941Z,10.39
2016-12-10T10:23:56.966Z,10.39
2016-12-10T10:25:12.179Z,10.42
2016-12-10T10:26:28.539Z,10.55
2016-12-10T10:27:41.749Z,10.43
2016-12-10T10:28:57.412Z,10.52
2016-12-10T10:30:11.771Z,10.36
2016-12-10T10:31:22.469Z,10.42
2016-12-10T10:32:37.558Z,10.53
2016-12-10T10:33:52.642Z,10.52
2016-12-10T10:35:04.264Z,10.51
2016-12-10T10:36:18.999Z,10.4
2016-12-10T10:37:34.205Z,10.51
2016-12-10T10:38:49.109Z,10.43
2016-12-10T10:40:04.399Z,10.39
2016-12-10T10:41:20.876Z,10.47
2016-12-10T10:42:37.650Z,10.43
2016-12-10T10:43:53.571Z,10.56
2016-12-10T10:45:09.049Z,10.56
2016-12-10T10:46:24.123Z,10.53
2016-12-10T10:47:38.843Z,10.4
2016-12-10T10:48:53.604Z,10.44
2016-12-10T10:50:10.099Z,10.43
2016-12-10T10:51:25.177Z,10.47
2016-12-10T10:52:41.723Z,10.42
2016-12-10T10:53:58.479Z,10.4
2016-12-10T10:55:15.916Z,10.47
2016-12-10T10:56:32.895Z,10.46
2016-12-10T10:57:47.256Z,10.43
2016-12-10T10:59:01.943Z,10.42
2016-12-10T11:00:15.977Z,10.39
2016-12-10T11:01:31.608Z,10.44
2016-12-10T11:02:46.230Z,10.39
2016-12-10T11:03:59.630Z,10.4
2016-12-10T11:05:15.666Z,10.37
2016-12-10T11:06:31.666Z,10.37
2016-12-10T11:07:47.583Z,10.42
2016-12-10T11:08:59.621Z,10.42
2016-12-10T11:10:13.513Z,10.4
2016-12-10T11:11:29.415Z,10.42
2016-12-10T11:12:46.327Z,10.4
2016-12-10T11:14:03.049Z,10.42
2016-12-10T11:15:17.521Z,10.39
2016-12-10T11:16:29.534Z,10.36
2016-12-10T11:17:44.803Z,10.39
2016-12-10T11:18:59.082Z,10.43
2016-12-10T11:20:15.586Z,10.43
2016-12-10T11:21:30.259Z,10.28
2016-12-10T11:22:46.596Z,10.33
2016-12-10T11:24:03.193Z,10.36
2016-12-10T11:25:18.677Z,10.39
2016-12-10T11:26:34.739Z,10.3
2016-12-10T11:27:49.461Z,10.32
2016-12-10T11:29:05.645Z,10.37
2016-12-10T11:30:21.385Z,10.4
2016-12-10T11:31:38.164Z,10.39
2016-12-10T11:32:54.827Z,10.36
2016-12-10T11:34:09.586Z,10.42
2016-12-10T11:35:25.753Z,10.55
2016-12-10T11:36:40.414Z,10.53
2016-12-10T11:37:55.493Z,10.77
2016-12-10T11:39:10.272Z,10.91
2016-12-10T11:40:27.060Z,10.88
2016-12-10T11:41:43.219Z,10.89
2016-12-10T11:43:00.586Z,10.89
2016-12-10T11:44:15.609Z,10.92
2016-12-10T11:45:31.541Z,10.95
2016-12-10T11:46:47.379Z,10.92
2016-12-10T11:48:02.450Z,10.77
2016-12-10T11:49:18.921Z,10.76
2016-12-10T11:50:33.392Z,10.74
2016-12-10T11:51:48.612Z,10.63
2016-12-10T11:53:03.237Z,10.58
2016-12-10T11:54:16.696Z,10.4
2016-12-10T11:55:32.856Z,10.37
2016-12-10T11:56:49.036Z,10.32
2016-12-10T11:58:04.690Z,10.33
2016-12-10T11:59:19.796Z,10.18
2016-12-10T12:00:36.565Z,10.1
2016-12-10T12:01:51.444Z,9.94
2016-12-10T12:03:06.563Z,9.93
2016-12-10T12:04:22.994Z,10.03
2016-12-10T12:05:37.815Z,9.97
2016-12-10T12:06:52.123Z,9.86
2016-12-10T12:08:03.687Z,10
2016-12-10T12:09:19.182Z,9.82
2016-12-10T12:10:36.323Z,9.88
2016-12-10T12:11:51.549Z,9.85
2016-12-10T12:13:04.541Z,9.94
2016-12-10T12:14:19.086Z,9.75
2016-12-10T12:15:34.212Z,9.86
2016-12-10T12:16:48.845Z,9.83
2016-12-10T12:18:03.786Z,9.76
2016-12-10T12:19:19.852Z,9.76
2016-12-10T12:20:33.420Z,9.67
2016-12-10T12:21:47.023Z,9.68
2016-12-10T12:23:01.859Z,9.73
2016-12-10T12:24:16.930Z,9.66
2016-12-10T12:25:32.792Z,9.66
2016-12-10T12:26:45.928Z,9.67
2016-12-10T12:28:00.619Z,9.66
2016-12-10T12:29:17.060Z,9.56
2016-12-10T12:30:32.962Z,9.6
2016-12-10T12:31:48.261Z,9.61
2016-12-10T12:33:04.270Z,9.63
2016-12-10T12:34:20.430Z,9.64
2016-12-10T12:35:34.708Z,9.64
2016-12-10T12:36:50.404Z,9.66
2016-12-10T12:38:06.700Z,9.6
2016-12-10T12:39:22.797Z,9.63
2016-12-10T12:40:37.881Z,9.53
2016-12-10T12:41:54.445Z,9.56
2016-12-10T12:43:11.051Z,9.49
2016-12-10T12:44:24.623Z,9.61
2016-12-10T12:45:39.716Z,9.6
2016-12-10T12:46:54.090Z,9.63
2016-12-10T12:48:08.291Z,9.53
2016-12-10T12:49:22.085Z,9.49
2016-12-10T12:50:37.332Z,9.48
2016-12-10T12:51:48.881Z,9.43
2016-12-10T12:53:06.062Z,9.4
2016-12-10T12:54:21.277Z,9.42
2016-12-10T12:55:34.704Z,9.4
2016-12-10T12:56:45.304Z,9.4
2016-12-10T12:58:00.756Z,9.27
2016-12-10T12:59:16.667Z,9.23
2016-12-10T13:00:33.506Z,9.3
2016-12-10T13:01:49.855Z,9.16
2016-12-10T13:03:04.304Z,9.1
2016-12-10T13:04:18.924Z,9.12
2016-12-10T13:05:36.024Z,9.13
2016-12-10T13:06:50.998Z,9.12
2016-12-10T13:08:05.687Z,9.1
2016-12-10T13:09:22.317Z,9.16
2016-12-10T13:10:35.322Z,9.05
2016-12-10T13:11:50.462Z,9.1
2016-12-10T13:13:06.928Z,9.05
2016-12-10T13:14:20.460Z,8.94
2016-12-10T13:15:35.382Z,9.02
2016-12-10T13:16:50.178Z,9.09
2016-12-10T13:18:06.905Z,9.09
2016-12-10T13:19:23.781Z,9.06
2016-12-10T13:20:38.319Z,9.04
2016-12-10T13:21:53.124Z,9.05
2016-12-10T13:23:10.206Z,9.09
2016-12-10T13:24:23.804Z,9.01
2016-12-10T13:25:40.376Z,8.94
2016-12-10T13:26:55.245Z,8.86
2016-12-10T13:28:11.653Z,8.9
2016-12-10T13:29:24.948Z,8.87
2016-12-10T13:30:39.478Z,8.88
2016-12-10T13:31:54.392Z,8.87
2016-12-10T13:33:08.132Z,8.9
2016-12-10T13:34:23.235Z,8.9
2016-12-10T13:35:39.622Z,8.86
2016-12-10T13:36:55.706Z,8.84
2016-12-10T13:38:12.207Z,8.83
2016-12-10T13:39:27.340Z,8.83
2016-12-10T13:40:43.736Z,8.87
2016-12-10T13:42:00.417Z,8.87
2016-12-10T13:43:16.304Z,8.79
2016-12-10T13:44:32.760Z,8.86
2016-12-10T13:45:49.118Z,8.84
2016-12-10T13:47:05.219Z,8.81
2016-12-10T13:48:19.780Z,8.86
2016-12-10T13:49:34.426Z,8.86
2016-12-10T13:50:49.606Z,8.76
2016-12-10T13:52:04.311Z,8.76
2016-12-10T13:53:18.894Z,8.79
2016-12-10T13:54:33.272Z,8.76
2016-12-10T13:55:48.598Z,8.87
2016-12-10T13:57:04.540Z,8.79
2016-12-10T13:58:20.699Z,8.73
2016-12-10T13:59:37.223Z,8.76
2016-12-10T14:00:53.258Z,8.76
2016-12-10T14:02:08.540Z,8.75
2016-12-10T14:03:20.906Z,8.78
2016-12-10T14:04:35.625Z,8.76
2016-12-10T14:05:50.274Z,8.78
2016-12-10T14:07:05.165Z,8.75
2016-12-10T14:08:21.151Z,8.78
2016-12-10T14:09:34.557Z,8.71
2016-12-10T14:10:49.698Z,8.78
2016-12-10T14:12:02.578Z,8.68
2016-12-10T14:13:18.973Z,8.75
2016-12-10T14:14:33.745Z,8.76
2016-12-10T14:15:48.942Z,8.66
2016-12-10T14:17:04.918Z,8.76
2016-12-10T14:18:21.521Z,8.69
2016-12-10T14:19:35.134Z,8.63
2016-12-10T14:20:51.473Z,8.63
2016-12-10T14:22:08.222Z,8.68
2016-12-10T14:23:21.911Z,8.69
2016-12-10T14:24:37.997Z,8.66
2016-12-10T14:25:52.027Z,8.69
2016-12-10T14:27:07.934Z,8.63
2016-12-10T14:28:20.922Z,8.75
2016-12-10T14:29:38.062Z,8.66
2016-12-10T14:30:53.379Z,8.69
2016-12-10T14:32:06.672Z,8.72
2016-12-10T14:33:21.967Z,8.62
2016-12-10T14:34:38.352Z,8.62
2016-12-10T14:35:53.079Z,8.66
2016-12-10T14:37:08.072Z,8.75
2016-12-10T14:38:24.775Z,8.73
2016-12-10T14:39:40.976Z,8.76
2016-12-10T14:40:57.066Z,8.69
2016-12-10T14:42:10.217Z,8.71
2016-12-10T14:43:26.203Z,8.68
2016-12-10T14:44:42.224Z,8.72
2016-12-10T14:45:57.633Z,8.73
2016-12-10T14:47:13.809Z,8.65
2016-12-10T14:48:30.822Z,8.72
2016-12-10T14:49:44.424Z,8.65
2016-12-10T14:51:00.781Z,8.72
2016-12-10T14:52:15.730Z,8.66
2016-12-10T14:53:30.643Z,8.66
2016-12-10T14:54:46.736Z,8.71
2016-12-10T14:56:03.020Z,8.6
2016-12-10T14:57:18.110Z,8.58
2016-12-10T14:58:32.729Z,8.58
2016-12-10T14:59:48.234Z,8.53
2016-12-10T15:01:03.146Z,8.62
2016-12-10T15:02:18.688Z,8.51
2016-12-10T15:03:30.348Z,8.57
2016-12-10T15:04:46.669Z,8.62
2016-12-10T15:06:03.414Z,8.57
2016-12-10T15:07:19.879Z,8.54
2016-12-10T15:08:34.966Z,8.47
2016-12-10T15:09:50.391Z,8.5
2016-12-10T15:11:03.566Z,8.57
2016-12-10T15:12:18.995Z,8.55
2016-12-10T15:13:33.080Z,8.6
2016-12-10T15:14:47.385Z,8.58
2016-12-10T15:16:03.253Z,8.6
2016-12-10T15:17:17.712Z,8.55
2016-12-10T15:18:32.789Z,8.63
2016-12-10T15:19:48.604Z,8.58
2016-12-10T15:21:05.319Z,8.6
2016-12-10T15:22:20.010Z,8.57
2016-12-10T15:23:33.517Z,8.62
2016-12-10T15:24:49.197Z,8.57
2016-12-10T15:26:04.413Z,8.54
2016-12-10T15:27:19.264Z,8.51
2016-12-10T15:28:31.200Z,8.54
2016-12-10T15:29:44.263Z,8.5
2016-12-10T15:31:00.026Z,8.51
2016-12-10T15:32:14.723Z,8.6
2016-12-10T15:33:30.674Z,8.55
2016-12-10T15:34:45.766Z,8.55
2016-12-10T15:36:02.306Z,8.57
2016-12-10T15:37:15.845Z,8.55
2016-12-10T15:38:30.226Z,8.45
2016-12-10T15:39:46.161Z,8.48
2016-12-10T15:40:59.232Z,8.57
2016-12-10T15:42:13.948Z,8.48
2016-12-10T15:43:29.137Z,8.48
2016-12-10T15:44:44.426Z,8.47
2016-12-10T15:45:59.517Z,8.6
2016-12-10T15:47:15.158Z,8.5
2016-12-10T15:48:31.853Z,8.48
2016-12-10T15:49:48.586Z,8.5
2016-12-10T15:51:04.866Z,8.55
2016-12-10T15:52:19.988Z,8.51
2016-12-10T15:53:33.719Z,8.54
2016-12-10T15:54:45.782Z,8.63
2016-12-10T15:56:01.419Z,8.6
2016-12-10T15:57:16.341Z,8.55
2016-12-10T15:58:30.288Z,8.54
2016-12-10T15:59:47.091Z,8.57
2016-12-10T16:01:00.817Z,8.57
2016-12-10T16:02:13.984Z,8.63
2016-12-10T16:03:30.549Z,8.55
2016-12-10T16:04:46.222Z,8.62
2016-12-10T16:06:00.834Z,8.62
2016-12-10T16:07:15.239Z,8.54
2016-12-10T16:08:30.571Z,8.57
2016-12-10T16:09:43.468Z,8.5
2016-12-10T16:10:58.672Z,8.54
2016-12-10T16:12:14.013Z,8.51
2016-12-10T16:13:28.576Z,8.48
2016-12-10T16:14:43.271Z,8.6
2016-12-10T16:15:56.494Z,8.5
2016-12-10T16:17:12.148Z,8.45
2016-12-10T16:18:26.210Z,8.5
2016-12-10T16:19:41.999Z,8.45
2016-12-10T16:20:56.828Z,8.53
2016-12-10T16:22:11.677Z,8.5
2016-12-10T16:23:25.265Z,8.51
2016-12-10T16:24:38.874Z,8.57
2016-12-10T16:25:55.643Z,8.47
2016-12-10T16:27:11.734Z,8.48
2016-12-10T16:28:28.693Z,8.63
2016-12-10T16:29:42.142Z,8.5
2016-12-10T16:30:57.671Z,8.53
2016-12-10T16:32:14.304Z,8.48
2016-12-10T16:33:29.301Z,8.5
2016-12-10T16:34:45.659Z,8.5
2016-12-10T16:35:59.067Z,8.5
2016-12-10T16:37:14.528Z,8.51
2016-12-10T16:38:29.464Z,8.48
2016-12-10T16:39:44.806Z,8.53